Terminal Aerodrome Forecast
Issued by NWS

Home | Current Version | Previous Version | Text Only | Print | Product List | Glossary On
Versions: 1 2 3 4 5 6 7 8 9 10 11 12 13 14 15 16
000
FTUS43 KICT 272338
TAFCNU
TAF
KCNU 272338Z 2800/2824 10005KT 4SM -SN SCT020 BKN040
     FM280300 09010KT P6SM OVC050
     FM281500 13012KT 2SM -SN OVC015
     FM281800 15010KT 1/2SM SN OVC005=

USA.gov is the U.S. government's official web portal to all federal, state and local government web resources and services.